Time;durP1;ratioP1;P1;durP2;ratioP2;P2;SDS_P1;SDS_P2;PMS_P1;PMS_P2;Temp;Humidity;BMP_temperature;BMP_pressure;BME280_temperature;BME280_humidity;BME280_pressure;Samples;Min_cycle;Max_cycle;Signal;HPM_P1;HPM_P2
2022/02/14 00:02:22;;;;;;;8.13;3.88;;;;;;;9.11;76.78;99891.94;5061199;28;20048;-82
2022/02/14 00:04:47;;;;;;;6.03;3.70;;;;;;;9.09;76.84;99886.78;5076796;28;20401;-82
2022/02/14 00:07:13;;;;;;;7.63;4.05;;;;;;;9.11;76.68;99881.47;5045582;28;20063;-82
2022/02/14 00:09:38;;;;;;;4.88;3.30;;;;;;;9.11;76.87;99882.31;5096476;28;20383;-82
2022/02/14 00:12:04;;;;;;;10.18;4.00;;;;;;;9.12;76.96;99870.13;5060403;28;20142;-82
2022/02/14 00:14:30;;;;;;;9.18;4.00;;;;;;;9.11;76.93;99877.09;5069741;28;20024;-82
2022/02/14 00:16:55;;;;;;;7.85;4.20;;;;;;;9.14;76.91;99874.34;5093608;28;20024;-82
2022/02/14 00:19:22;;;;;;;4.10;3.47;;;;;;;9.14;76.85;99866.50;5097964;28;20063;-82
2022/02/14 00:21:47;;;;;;;7.85;3.78;;;;;;;9.14;76.86;99874.34;5094597;28;20040;-82
2022/02/14 00:24:16;;;;;;;9.23;4.38;;;;;;;9.16;76.58;99871.66;5068729;28;20055;-82
2022/02/14 00:26:42;;;;;;;;;;;;;;;9.16;76.75;99861.19;5060264;28;20111;-82
2022/02/14 00:29:07;;;;;;;8.53;3.80;;;;;;;9.17;77.18;99853.28;5060724;28;19916;-82
2022/02/14 00:31:33;;;;;;;9.82;3.90;;;;;;;9.18;76.88;99856.75;5077306;28;20635;-82
2022/02/14 00:33:59;;;;;;;12.93;3.92;;;;;;;9.18;76.49;99843.69;5096917;28;20356;-82
2022/02/14 00:36:24;;;;;;;11.88;3.90;;;;;;;9.18;76.93;99839.28;5078571;28;20047;-82
2022/02/14 00:38:50;;;;;;;12.90;3.97;;;;;;;9.21;76.82;99840.91;5097495;28;20020;-82
2022/02/14 00:41:15;;;;;;;9.68;4.03;;;;;;;9.21;76.73;99839.16;5062158;28;20059;-82
2022/02/14 00:43:41;;;;;;;7.57;3.33;;;;;;;9.22;77.03;99830.41;5094843;28;20267;-82
2022/02/14 00:46:06;;;;;;;11.32;4.20;;;;;;;9.23;76.95;99823.41;5097218;28;20020;-82
2022/02/14 00:48:32;;;;;;;11.70;4.10;;;;;;;9.22;77.07;99819.94;5080791;28;20028;-82
2022/02/14 00:50:57;;;;;;;12.02;4.30;;;;;;;9.22;76.98;99817.34;5098385;28;20163;-82
2022/02/14 00:53:23;;;;;;;9.70;4.07;;;;;;;9.23;77.09;99805.94;5071356;28;20040;-82
2022/02/14 00:55:49;;;;;;;8.00;3.70;;;;;;;9.25;76.78;99805.03;5061061;28;20041;-82
2022/02/14 00:58:15;;;;;;;9.77;4.22;;;;;;;9.27;76.71;99800.56;5078374;28;20044;-82
2022/02/14 01:00:40;;;;;;;10.45;4.28;;;;;;;9.28;76.79;99794.41;5061096;28;20036;-82
2022/02/14 01:03:06;;;;;;;10.32;3.90;;;;;;;9.28;76.72;99790.03;5078204;28;20059;-82
2022/02/14 01:05:32;;;;;;;6.00;3.50;;;;;;;9.30;77.30;99774.28;5060432;28;20065;-82
2022/02/14 01:07:57;;;;;;;10.35;4.60;;;;;;;9.28;76.87;99779.59;5078428;28;20040;-82
2022/02/14 01:10:22;;;;;;;15.73;4.28;;;;;;;9.30;76.82;99782.13;5093852;28;20328;-82
2022/02/14 01:12:48;;;;;;;7.53;3.85;;;;;;;9.28;76.83;99769.13;5112096;28;20048;-82
2022/02/14 01:15:13;;;;;;;8.98;3.95;;;;;;;9.29;76.83;99757.75;5096647;28;20242;-82
2022/02/14 01:17:40;;;;;;;13.77;5.13;;;;;;;9.30;76.81;99766.47;5079731;28;20024;-82
2022/02/14 01:20:08;;;;;;;12.77;4.07;;;;;;;9.29;76.65;99746.47;5096731;28;20039;-82
2022/02/14 01:22:34;;;;;;;9.65;4.10;;;;;;;9.30;76.70;99743.78;5079827;28;20032;-82
2022/02/14 01:25:00;;;;;;;7.15;4.18;;;;;;;9.28;76.37;99735.19;5110845;28;20102;-82
2022/02/14 01:27:26;;;;;;;9.95;4.47;;;;;;;9.30;76.57;99732.50;5099955;28;20032;-82
2022/02/14 01:29:51;;;;;;;6.28;3.75;;;;;;;9.29;76.73;99720.34;5098345;28;20062;-82
2022/02/14 01:32:22;;;;;;;8.63;3.95;;;;;;;9.30;76.72;99732.50;5087920;28;20016;-82
2022/02/14 01:34:49;;;;;;;11.27;3.60;;;;;;;9.28;76.46;99726.47;5100807;28;20235;-82
2022/02/14 01:37:15;;;;;;;6.82;3.22;;;;;;;9.29;76.61;99733.41;5081052;28;20366;-82
2022/02/14 01:39:41;;;;;;;6.97;3.88;;;;;;;9.29;76.62;99726.41;5078820;28;20059;-82
2022/02/14 01:42:07;;;;;;;8.85;4.30;;;;;;;9.28;77.21;99709.06;5096934;28;20052;-82
2022/02/14 01:44:44;;;;;;;8.68;3.00;;;;;;;9.29;76.87;99717.72;5097406;28;20031;-82
2022/02/14 01:47:21;;;;;;;6.03;3.30;;;;;;;9.29;76.89;99707.28;5097717;28;20352;-83
2022/02/14 01:49:48;;;;;;;6.85;2.83;;;;;;;9.28;76.79;99696.00;5097746;28;20444;-82
2022/02/14 01:52:15;;;;;;;8.07;3.08;;;;;;;9.28;76.91;99695.13;5097007;28;20110;-82
2022/02/14 01:54:42;;;;;;;7.75;3.80;;;;;;;9.30;77.00;99698.53;5080158;28;20040;-82
2022/02/14 01:57:09;;;;;;;8.02;3.17;;;;;;;9.30;76.96;99696.75;5078505;28;20024;-82
2022/02/14 01:59:35;;;;;;;9.63;3.22;;;;;;;9.30;76.95;99688.06;5079651;28;20020;-82
2022/02/14 02:02:02;;;;;;;6.97;2.78;;;;;;;9.30;76.58;99673.22;5087937;28;20104;-82
2022/02/14 02:04:28;;;;;;;7.13;3.13;;;;;;;9.29;76.81;99681.97;5093672;28;20036;-82
2022/02/14 02:06:53;;;;;;;10.75;2.70;;;;;;;9.31;76.63;99672.28;5086179;28;20135;-82
2022/02/14 02:09:19;;;;;;;6.35;2.33;;;;;;;9.31;77.04;99676.69;5099796;28;20027;-82
2022/02/14 02:14:29;;;;;;;8.85;2.78;;;;;;;9.31;76.81;99669.66;5065731;28;20120;-82
2022/02/14 02:16:54;;;;;;;5.38;2.53;;;;;;;9.32;76.73;99671.38;5059303;28;20208;-82
2022/02/14 02:19:20;;;;;;;5.00;2.63;;;;;;;9.32;77.01;99666.16;5077440;28;20044;-82
2022/02/14 02:21:49;;;;;;;8.88;3.05;;;;;;;9.31;76.93;99656.63;5078763;28;20032;-82
2022/02/14 02:24:17;;;;;;;7.80;2.95;;;;;;;9.33;76.90;99661.75;5080008;28;20035;-82
2022/02/14 02:27:04;;;;;;;5.57;2.72;;;;;;;9.33;77.03;99651.31;5063875;28;20157;-82
2022/02/14 02:29:31;;;;;;;5.03;2.20;;;;;;;9.33;76.99;99643.47;5092883;28;20078;-82
2022/02/14 02:31:57;;;;;;;5.05;2.15;;;;;;;9.34;76.65;99624.25;5100102;28;20042;-82
2022/02/14 02:34:23;;;;;;;10.15;2.13;;;;;;;9.34;76.74;99632.94;5081126;28;20235;-82
2022/02/14 02:36:50;;;;;;;7.68;1.92;;;;;;;9.34;76.90;99627.72;5083405;28;20032;-82
2022/02/14 02:39:16;;;;;;;3.28;2.40;;;;;;;9.35;76.87;99625.94;5101412;28;20040;-82
2022/02/14 02:41:41;;;;;;;3.13;2.90;;;;;;;9.34;76.76;99635.56;5101517;28;20088;-82
2022/02/14 02:44:07;;;;;;;6.13;2.80;;;;;;;9.34;77.02;99619.88;5082315;28;20039;-82
2022/02/14 02:46:33;;;;;;;4.15;2.45;;;;;;;9.35;76.82;99615.47;5081296;28;20067;-82
2022/02/14 02:49:28;;;;;;;4.60;2.28;;;;;;;9.36;77.03;99625.03;5079194;28;20224;-82
2022/02/14 02:51:54;;;;;;;7.53;3.38;;;;;;;9.35;77.01;99621.56;5071544;28;20056;-82
2022/02/14 02:54:21;;;;;;;4.25;2.65;;;;;;;9.36;77.17;99615.41;5101108;28;20252;-82
2022/02/14 02:56:47;;;;;;;4.15;2.22;;;;;;;9.36;76.91;99606.72;5083339;28;20036;-82
2022/02/14 02:59:13;;;;;;;4.80;2.03;;;;;;;9.38;76.77;99602.25;5082756;28;20138;-82
2022/02/14 03:01:40;;;;;;;7.15;2.75;;;;;;;9.39;76.69;99598.72;5086453;28;20204;-82
2022/02/14 03:04:08;;;;;;;3.45;2.30;;;;;;;9.38;77.01;99589.19;5079299;28;20063;-82
2022/02/14 03:06:33;;;;;;;5.47;2.40;;;;;;;9.39;76.90;99596.13;5066376;28;20055;-82
2022/02/14 03:08:59;;;;;;;9.93;2.85;;;;;;;9.39;76.81;99581.28;5082544;28;20032;-82
2022/02/14 03:11:25;;;;;;;5.25;2.15;;;;;;;9.38;76.85;99576.97;5082866;28;20039;-82
2022/02/14 03:13:51;;;;;;;4.72;2.10;;;;;;;9.38;76.94;99584.81;5084449;28;20123;-82
2022/02/14 03:16:17;;;;;;;5.90;2.22;;;;;;;9.38;76.89;99583.97;5079159;28;20033;-82
2022/02/14 03:18:43;;;;;;;7.80;2.08;;;;;;;9.40;76.37;99582.97;5096662;28;20043;-82
2022/02/14 03:21:10;;;;;;;7.63;2.58;;;;;;;9.41;76.57;99579.41;5080448;28;20100;-82
2022/02/14 03:23:36;;;;;;;13.02;2.75;;;;;;;9.41;76.72;99568.13;5081578;28;20055;-82
2022/02/14 03:26:02;;;;;;;8.27;2.63;;;;;;;9.45;76.58;99568.81;5080178;28;20032;-82
2022/02/14 03:28:28;;;;;;;3.28;2.40;;;;;;;9.45;76.57;99560.97;5080233;28;20029;-82
2022/02/14 03:30:54;;;;;;;4.30;2.10;;;;;;;9.46;76.94;99581.78;5062173;28;20232;-82
2022/02/14 03:33:19;;;;;;;3.00;1.90;;;;;;;9.46;76.79;99567.84;5072805;28;20327;-82
2022/02/14 03:35:46;;;;;;;3.58;2.08;;;;;;;9.48;76.31;99560.75;5100833;28;20055;-82
2022/02/14 03:38:11;;;;;;;4.55;2.20;;;;;;;9.47;76.36;99570.38;5099910;28;20366;-82
2022/02/14 03:40:37;;;;;;;5.57;2.50;;;;;;;9.48;76.58;99561.63;5082840;28;20040;-82
2022/02/14 03:43:04;;;;;;;8.45;2.42;;;;;;;9.48;76.46;99556.41;5081337;28;20104;-82
2022/02/14 03:45:31;;;;;;;3.92;1.70;;;;;;;9.48;76.18;99547.69;5080005;28;20040;-82
2022/02/14 03:47:57;;;;;;;3.95;2.13;;;;;;;9.48;76.57;99584.28;5080573;28;20251;-82
2022/02/14 03:50:23;;;;;;;5.28;2.63;;;;;;;9.48;76.28;99539.84;5100415;28;20247;-82
2022/02/14 03:52:48;;;;;;;5.25;2.00;;;;;;;9.49;76.18;99552.84;5081726;28;20297;-82
2022/02/14 03:55:14;;;;;;;7.47;2.20;;;;;;;9.49;76.05;99557.22;5100171;28;20046;-82
2022/02/14 03:57:40;;;;;;;5.30;2.08;;;;;;;9.50;76.21;99546.69;5100246;28;20091;-85
2022/02/14 04:00:08;;;;;;;6.40;2.10;;;;;;;9.51;76.36;99548.38;5099421;28;20395;-84
2022/02/14 04:02:34;;;;;;;10.48;2.63;;;;;;;9.49;76.25;99544.16;5076775;28;20042;-84
2022/02/14 04:05:00;;;;;;;7.25;2.30;;;;;;;9.49;76.44;99539.78;5097933;28;20067;-84
2022/02/14 04:07:26;;;;;;;5.82;2.60;;;;;;;9.49;76.52;99528.50;5099432;28;20085;-84
2022/02/14 04:09:51;;;;;;;4.22;2.10;;;;;;;9.48;76.79;99525.03;5099413;28;20082;-84
2022/02/14 04:12:17;;;;;;;5.30;1.92;;;;;;;9.47;76.99;99520.72;5068541;28;20108;-84
2022/02/14 04:14:42;;;;;;;7.18;2.50;;;;;;;9.47;76.82;99519.91;5094875;28;20040;-84
2022/02/14 04:17:08;;;;;;;7.28;2.08;;;;;;;9.47;76.47;99536.41;5063906;28;20035;-84
2022/02/14 04:19:33;;;;;;;3.88;1.65;;;;;;;9.46;76.85;99515.59;5099397;28;20038;-84
2022/02/14 04:21:58;;;;;;;8.85;1.80;;;;;;;9.46;76.71;99539.97;5074859;28;20313;-84
2022/02/14 04:24:24;;;;;;;6.00;1.90;;;;;;;9.47;76.30;99525.13;5094416;28;20259;-84
2022/02/14 04:26:49;;;;;;;7.55;2.20;;;;;;;9.47;76.81;99525.13;5094441;28;20028;-84
2022/02/14 04:29:15;;;;;;;3.13;2.13;;;;;;;9.46;76.93;99510.34;5078581;28;20313;-84
2022/02/14 04:31:40;;;;;;;6.40;2.00;;;;;;;9.48;76.80;99532.88;5080875;28;20101;-84
2022/02/14 04:34:05;;;;;;;5.80;2.10;;;;;;;9.47;76.95;99532.97;5080721;28;20046;-83
2022/02/14 04:36:31;;;;;;;3.58;2.20;;;;;;;9.46;77.45;99542.59;5080386;28;20043;-84
2022/02/14 04:38:56;;;;;;;8.23;2.20;;;;;;;9.45;77.09;99532.22;5097919;28;20384;-84
2022/02/14 04:41:21;;;;;;;3.95;2.00;;;;;;;9.44;77.50;99527.91;5080761;28;20289;-84
2022/02/14 04:43:47;;;;;;;6.75;2.03;;;;;;;9.45;77.39;99540.06;5079303;28;20041;-84
2022/02/14 04:46:12;;;;;;;5.68;1.95;;;;;;;9.43;77.38;99529.69;5093265;28;20032;-84
2022/02/14 04:48:38;;;;;;;5.38;1.98;;;;;;;9.44;77.42;99541.84;5078482;28;20052;-84
2022/02/14 04:51:03;;;;;;;5.20;2.15;;;;;;;9.44;77.17;99547.06;5078209;28;20087;-84
2022/02/14 04:53:29;;;;;;;3.92;1.70;;;;;;;9.45;77.16;99540.06;5076604;28;20042;-84
2022/02/14 04:55:54;;;;;;;4.32;2.13;;;;;;;9.45;77.06;99543.50;5094501;28;20335;-84
2022/02/14 04:58:19;;;;;;;2.50;1.90;;;;;;;9.45;77.16;99537.44;5093718;28;20044;-84
2022/02/14 05:00:45;;;;;;;7.60;2.85;;;;;;;9.43;77.28;99550.59;5094046;28;20024;-84
2022/02/14 05:03:11;;;;;;;2.17;1.90;;;;;;;9.44;77.04;99538.34;5091476;28;20063;-84
2022/02/14 05:05:36;;;;;;;6.25;2.10;;;;;;;9.44;76.96;99546.19;5097925;28;20368;-84
2022/02/14 05:08:02;;;;;;;6.25;1.90;;;;;;;9.43;77.12;99542.75;5080126;28;20294;-84
2022/02/14 05:10:27;;;;;;;4.20;1.90;;;;;;;9.42;77.17;99546.28;5097569;28;20095;-84
2022/02/14 05:12:53;;;;;;;3.25;1.92;;;;;;;9.41;77.71;99544.59;5087082;28;20111;-84
2022/02/14 05:15:18;;;;;;;5.60;2.30;;;;;;;9.41;77.47;99545.44;5078270;28;20079;-83
2022/02/14 05:17:43;;;;;;;7.47;2.10;;;;;;;9.41;77.77;99565.50;5096580;28;20062;-84
2022/02/14 05:20:09;;;;;;;8.30;2.20;;;;;;;9.39;77.73;99551.69;5090292;28;20039;-84
2022/02/14 05:22:35;;;;;;;3.20;1.98;;;;;;;9.41;77.67;99557.69;5098295;28;20048;-84
2022/02/14 05:25:00;;;;;;;4.25;2.00;;;;;;;9.41;77.78;99568.97;5079908;28;20055;-84
2022/02/14 05:27:26;;;;;;;4.97;1.77;;;;;;;9.42;77.92;99564.56;5097623;28;20226;-84
2022/02/14 05:29:51;;;;;;;5.47;2.17;;;;;;;9.39;78.36;99562.97;5077910;28;20231;-84
2022/02/14 05:32:16;;;;;;;3.70;2.13;;;;;;;9.37;79.00;99570.06;5059761;28;20336;-84
2022/02/14 05:34:42;;;;;;;1.83;1.65;;;;;;;9.35;79.09;99574.53;5077844;28;20052;-84
2022/02/14 05:37:08;;;;;;;5.45;1.92;;;;;;;9.35;79.09;99573.69;5059888;28;20229;-84
2022/02/14 05:39:34;;;;;;;4.82;2.03;;;;;;;9.34;79.14;99575.47;5079893;28;20048;-84
2022/02/14 05:42:00;;;;;;;3.90;2.20;;;;;;;9.33;79.20;99575.53;5097747;28;20036;-84
2022/02/14 05:44:25;;;;;;;3.15;1.70;;;;;;;9.31;79.54;99585.22;5096690;28;20158;-84
2022/02/14 05:46:51;;;;;;;4.95;1.70;;;;;;;9.27;79.51;99584.56;5079949;28;20097;-84
2022/02/14 05:49:16;;;;;;;4.13;1.90;;;;;;;9.29;79.61;99587.94;5061571;28;20117;-84
2022/02/14 05:51:42;;;;;;;3.53;1.80;;;;;;;9.27;80.29;99602.84;5095340;28;20494;-84
2022/02/14 05:54:07;;;;;;;7.20;2.30;;;;;;;9.26;80.82;99623.81;5077041;28;20044;-84
2022/02/14 05:56:33;;;;;;;4.40;2.40;;;;;;;9.21;82.04;99630.16;5042823;28;20040;-84
2022/02/14 05:59:00;;;;;;;6.57;2.30;;;;;;;9.17;82.89;99646.94;5077590;28;20112;-84
2022/02/14 06:01:26;;;;;;;4.70;3.08;;;;;;;9.12;83.39;99643.72;5091084;28;20031;-84
2022/02/14 06:03:51;;;;;;;3.78;1.83;;;;;;;9.09;83.54;99645.66;5092864;28;20355;-84
2022/02/14 06:06:16;;;;;;;3.67;1.30;;;;;;;9.05;84.02;99642.34;5091495;28;20040;-84
2022/02/14 06:08:42;;;;;;;1.50;1.05;;;;;;;8.99;84.69;99646.13;5064857;28;20042;-84
2022/02/14 06:11:07;;;;;;;2.13;1.10;;;;;;;8.95;84.82;99655.06;5096703;28;20247;-84
2022/02/14 06:13:33;;;;;;;1.08;0.90;;;;;;;8.92;85.30;99651.78;5097166;28;20247;-84
2022/02/14 06:15:58;;;;;;;2.70;1.75;;;;;;;8.90;85.29;99666.69;5096420;28;20043;-84
2022/02/14 06:18:23;;;;;;;2.85;1.00;;;;;;;8.86;85.79;99679.06;5096876;28;20039;-84
2022/02/14 06:20:49;;;;;;;1.80;1.17;;;;;;;8.84;85.84;99679.13;5078935;28;20032;-85
2022/02/14 06:23:14;;;;;;;1.42;1.33;;;;;;;8.82;86.06;99680.97;5078645;28;20036;-84
2022/02/14 06:25:40;;;;;;;1.83;1.10;;;;;;;8.79;86.68;99688.13;5096860;28;20278;-85
2022/02/14 06:28:06;;;;;;;4.05;1.42;;;;;;;8.77;86.61;99695.19;5098057;28;20043;-84
2022/02/14 06:30:32;;;;;;;2.08;1.20;;;;;;;8.77;86.77;99700.41;5054247;28;20040;-85
2022/02/14 06:32:57;;;;;;;3.42;1.67;;;;;;;8.71;87.67;99698.09;5061787;28;20020;-85
2022/02/14 06:35:23;;;;;;;3.25;1.75;;;;;;;8.69;87.95;99708.59;5079306;28;20040;-85
2022/02/14 06:37:48;;;;;;;3.05;1.52;;;;;;;8.67;88.10;99710.47;5085931;28;20103;-85
2022/02/14 06:40:14;;;;;;;1.70;1.60;;;;;;;8.68;87.87;99703.47;5079252;28;20095;-85
2022/02/14 06:42:40;;;;;;;4.05;1.50;;;;;;;8.66;87.99;99708.78;5097398;28;20063;-84
2022/02/14 06:45:06;;;;;;;3.63;1.70;;;;;;;8.64;87.99;99715.81;5096747;28;20032;-85
2022/02/14 06:47:31;;;;;;;2.22;1.55;;;;;;;8.62;88.21;99722.88;5077521;28;20067;-84
2022/02/14 06:49:57;;;;;;;6.15;2.78;;;;;;;8.59;88.59;99717.84;5058943;28;20032;-84
2022/02/14 06:52:22;;;;;;;2.95;1.85;;;;;;;8.57;88.46;99714.47;5077200;28;20037;-85
2022/02/14 06:54:48;;;;;;;2.25;1.55;;;;;;;8.57;88.60;99733.56;5077303;28;20326;-85
2022/02/14 06:57:14;;;;;;;4.18;1.77;;;;;;;8.55;88.61;99732.81;5096757;28;20062;-85
2022/02/14 06:59:40;;;;;;;2.30;1.60;;;;;;;8.52;88.68;99748.63;5072150;28;20654;-85
2022/02/14 07:02:06;;;;;;;3.33;2.05;;;;;;;8.50;88.72;99745.25;5058907;28;20032;-84
2022/02/14 07:04:31;;;;;;;2.70;1.50;;;;;;;8.49;88.62;99759.19;5076562;28;20055;-84
2022/02/14 07:06:56;;;;;;;6.53;1.80;;;;;;;8.48;88.38;99756.66;5071631;28;20343;-84
2022/02/14 07:09:22;;;;;;;2.13;1.65;;;;;;;8.48;88.53;99760.13;5075230;28;20351;-85
2022/02/14 07:11:47;;;;;;;5.68;1.60;;;;;;;8.46;88.83;99767.19;5059942;28;20040;-84
2022/02/14 07:14:13;;;;;;;5.35;1.63;;;;;;;8.45;88.65;99768.94;5070067;28;20033;-84
2022/02/14 07:16:39;;;;;;;3.72;1.60;;;;;;;8.43;88.76;99768.16;5065439;28;20485;-85
2022/02/14 07:19:04;;;;;;;2.20;1.73;;;;;;;8.42;88.66;99776.94;5042150;28;20041;-84
2022/02/14 07:21:30;;;;;;;8.00;2.47;;;;;;;8.40;88.70;99780.50;5071553;28;20051;-84
2022/02/14 07:23:55;;;;;;;7.78;1.98;;;;;;;8.37;88.77;99786.72;5063027;28;20228;-85
2022/02/14 07:26:21;;;;;;;3.80;1.45;;;;;;;8.36;88.80;99789.38;5070238;28;20219;-84
2022/02/14 07:28:47;;;;;;;3.67;1.63;;;;;;;8.35;88.74;99790.28;5071569;28;20251;-84
2022/02/14 07:31:13;;;;;;;6.55;1.90;;;;;;;8.35;88.61;99798.13;5059308;28;20055;-84
2022/02/14 07:33:39;;;;;;;3.08;1.73;;;;;;;8.32;88.65;99809.56;5055604;28;20124;-84
2022/02/14 07:36:05;;;;;;;2.05;1.40;;;;;;;8.30;88.54;99807.97;5057058;28;20348;-84
2022/02/14 07:38:31;;;;;;;2.25;1.58;;;;;;;8.30;88.45;99818.41;5086217;28;20239;-84
2022/02/14 07:40:57;;;;;;;5.30;1.88;;;;;;;8.27;88.47;99817.59;5069183;28;20051;-85
2022/02/14 07:43:23;;;;;;;6.97;2.08;;;;;;;8.32;88.26;99832.22;5075984;28;20062;-84
2022/02/14 07:45:49;;;;;;;4.10;1.55;;;;;;;8.30;88.06;99826.22;5073008;28;20043;-84
2022/02/14 07:48:15;;;;;;;6.18;1.58;;;;;;;8.27;88.06;99828.03;5074768;28;20050;-84
2022/02/14 07:50:40;;;;;;;6.05;1.52;;;;;;;8.29;88.56;99830.56;5053280;28;20040;-85
2022/02/14 07:53:09;;;;;;;6.00;1.35;;;;;;;8.29;88.03;99837.56;5057560;28;20301;-85
2022/02/14 07:55:35;;;;;;;3.93;1.40;;;;;;;8.30;87.95;99840.09;5075971;28;20048;-85
2022/02/14 07:58:01;;;;;;;2.72;0.80;;;;;;;8.32;88.10;99838.25;5074236;28;20537;-84
2022/02/14 08:00:26;;;;;;;5.15;1.13;;;;;;;8.34;87.88;99849.47;5053958;28;20383;-84
2022/02/14 08:02:51;;;;;;;5.43;1.40;;;;;;;8.35;88.23;99850.31;5041696;28;20100;-84
2022/02/14 08:05:17;;;;;;;5.82;2.08;;;;;;;8.36;87.90;99865.03;5083089;28;20162;-84
2022/02/14 08:07:42;;;;;;;4.22;1.30;;;;;;;8.35;87.63;99851.16;5095702;28;20343;-84
2022/02/14 08:10:08;;;;;;;4.22;1.20;;;;;;;8.36;88.00;99852.00;5093979;28;20051;-84
2022/02/14 08:12:34;;;;;;;2.83;1.30;;;;;;;8.35;88.00;99851.16;5092236;28;20114;-84
2022/02/14 08:15:00;;;;;;;4.53;1.40;;;;;;;8.36;87.93;99838.97;5073401;28;20028;-84
2022/02/14 08:17:26;;;;;;;2.72;1.60;;;;;;;8.34;88.22;99849.47;5093539;28;20039;-84
2022/02/14 08:19:51;;;;;;;2.53;1.60;;;;;;;8.35;88.27;99861.59;5088924;28;20243;-84
2022/02/14 08:22:17;;;;;;;2.75;1.33;;;;;;;8.35;88.37;99871.16;5063409;28;20047;-83
2022/02/14 08:24:42;;;;;;;2.15;1.60;;;;;;;8.36;88.32;99875.47;5070891;28;20108;-84
2022/02/14 08:27:07;;;;;;;1.50;1.25;;;;;;;8.37;88.23;99872.81;5094180;28;20126;-84
2022/02/14 08:29:33;;;;;;;3.83;1.50;;;;;;;8.38;87.97;99881.47;5081288;28;20040;-84
2022/02/14 08:31:59;;;;;;;4.22;1.38;;;;;;;8.38;87.87;99877.09;5099429;27;20328;-84
2022/02/14 08:34:24;;;;;;;1.77;1.58;;;;;;;8.38;88.01;99882.31;5076145;28;20082;-84
2022/02/14 08:36:49;;;;;;;3.08;2.08;;;;;;;8.39;88.27;99885.78;5084104;28;20032;-85
2022/02/14 08:39:15;;;;;;;2.97;2.08;;;;;;;8.38;88.25;99889.28;5083051;28;20100;-84
2022/02/14 08:41:41;;;;;;;5.45;2.60;;;;;;;8.37;88.23;99891.06;5085350;28;20039;-84
2022/02/14 08:44:07;;;;;;;4.82;2.60;;;;;;;8.36;88.32;99888.53;5100179;28;20369;-84
2022/02/14 08:46:33;;;;;;;3.83;2.53;;;;;;;8.38;88.07;99891.91;5101589;28;20099;-84
2022/02/14 08:49:00;;;;;;;5.47;3.03;;;;;;;8.37;88.05;99885.84;5101145;28;20032;-84
2022/02/14 08:51:26;;;;;;;4.43;3.20;;;;;;;8.34;88.48;99903.41;5103486;28;20057;-85
2022/02/14 08:53:53;;;;;;;4.47;2.58;;;;;;;8.35;88.34;99902.47;5105716;28;20237;-85
2022/02/14 08:56:18;;;;;;;4.32;2.50;;;;;;;8.35;88.21;99907.69;5094495;28;20243;-84
2022/02/14 08:58:45;;;;;;;3.63;2.78;;;;;;;8.31;88.31;99901.78;5092827;28;20063;-85
2022/02/14 09:01:11;;;;;;;6.63;2.30;;;;;;;8.33;87.91;99904.31;5075637;28;20266;-85
2022/02/14 09:03:39;;;;;;;3.38;2.45;;;;;;;8.33;88.11;99914.75;5095520;28;20100;-85
2022/02/14 09:06:05;;;;;;;2.50;2.30;;;;;;;8.32;88.27;99913.91;5091852;28;20047;-85
2022/02/14 09:08:31;;;;;;;6.10;2.50;;;;;;;8.34;88.09;99913.84;5072126;28;20211;-85
2022/02/14 09:10:59;;;;;;;4.10;2.92;;;;;;;8.33;88.01;99919.97;5072869;28;20070;-85
2022/02/14 09:13:25;;;;;;;3.42;2.15;;;;;;;8.34;88.18;99921.69;5060482;28;20075;-85
2022/02/14 09:15:50;;;;;;;5.32;2.45;;;;;;;8.36;88.21;99920.66;5098645;28;20043;-85
2022/02/14 09:18:15;;;;;;;6.70;3.22;;;;;;;8.35;88.19;99924.22;5075667;28;20127;-85
2022/02/14 09:20:41;;;;;;;6.28;2.55;;;;;;;8.37;88.14;99937.19;5097795;28;20048;-84
2022/02/14 09:23:07;;;;;;;2.25;2.05;;;;;;;8.37;88.08;99945.03;5077160;28;20522;-84
2022/02/14 09:25:33;;;;;;;3.22;2.03;;;;;;;8.36;87.96;99954.59;5093017;28;20044;-85
2022/02/14 09:28:00;;;;;;;9.88;2.78;;;;;;;8.35;87.98;99945.09;5077995;28;20032;-84
2022/02/14 09:30:26;;;;;;;4.00;2.75;;;;;;;8.35;87.48;99959.88;5057924;28;20039;-85
2022/02/14 09:32:51;;;;;;;4.25;2.25;;;;;;;8.35;87.26;99952.03;5085046;28;20044;-85
2022/02/14 09:35:26;;;;;;;6.88;2.10;;;;;;;8.36;87.04;99951.13;5072987;28;20291;-85
2022/02/14 09:38:04;;;;;;;6.18;2.47;;;;;;;8.36;86.91;99965.03;5076780;28;20032;-84
2022/02/14 09:40:31;;;;;;;7.45;2.25;;;;;;;8.35;86.59;99975.53;5076621;28;20043;-85
2022/02/14 09:42:58;;;;;;;9.55;1.67;;;;;;;8.30;83.80;99965.31;5101094;28;20039;-83
2022/02/14 09:45:25;;;;;;;10.85;2.03;;;;;;;8.30;82.71;99967.09;5091968;28;20051;-84
2022/02/14 09:47:54;;;;;;;3.15;1.17;;;;;;;8.26;82.89;99977.66;5067607;28;20060;-84
2022/02/14 09:50:20;;;;;;;3.85;1.38;;;;;;;8.25;83.38;99988.97;5083146;28;20103;-83
2022/02/14 09:52:46;;;;;;;8.15;1.60;;;;;;;8.27;82.50;99994.13;5095108;28;20089;-84
2022/02/14 09:55:11;;;;;;;6.43;1.20;;;;;;;8.25;82.58;100002.03;5090256;28;20099;-82
2022/02/14 09:57:36;;;;;;;5.68;1.02;;;;;;;8.20;82.96;100005.75;5083338;28;20036;-84
2022/02/14 10:00:04;;;;;;;6.07;1.60;;;;;;;8.17;82.91;99995.47;5091471;28;20044;-84
2022/02/14 10:02:32;;;;;;;2.53;1.02;;;;;;;8.13;82.84;99991.28;5095476;28;20032;-85
2022/02/14 10:05:06;;;;;;;9.10;2.20;;;;;;;8.13;83.31;99986.06;5093910;28;20047;-84
2022/02/14 10:07:52;;;;;;;4.90;1.33;;;;;;;8.12;83.32;99994.84;5103239;28;20118;-84
2022/02/14 10:10:19;;;;;;;8.90;1.30;;;;;;;8.10;83.13;100000.09;5067559;28;20403;-84
2022/02/14 10:12:51;;;;;;;4.82;1.40;;;;;;;8.09;82.88;99993.19;5091020;28;20035;-85
2022/02/14 10:15:18;;;;;;;8.82;1.30;;;;;;;8.13;83.11;100001.72;5070805;28;20321;-83
2022/02/14 10:17:48;;;;;;;9.02;1.42;;;;;;;8.11;83.38;99998.34;5057658;28;20146;-84
2022/02/14 10:20:18;;;;;;;14.82;1.83;;;;;;;8.13;83.64;100007.81;5087630;28;20042;-85
2022/02/14 10:23:05;;;;;;;11.63;2.03;;;;;;;8.13;83.56;100020.84;5083638;28;20028;-84
2022/02/14 10:25:40;;;;;;;6.47;1.48;;;;;;;8.13;83.42;100022.59;5093758;28;20039;-84
2022/02/14 10:28:22;;;;;;;7.63;1.60;;;;;;;8.12;83.82;100026.97;5086787;28;20033;-85
2022/02/14 10:31:06;;;;;;;6.40;1.83;;;;;;;8.09;83.25;100034.91;5090026;28;20043;-85
2022/02/14 10:33:52;;;;;;;9.38;1.45;;;;;;;8.08;82.82;100049.72;5095699;28;20024;-82
2022/02/14 10:36:25;;;;;;;5.38;1.42;;;;;;;8.08;83.11;100044.50;5084128;28;20051;-85
2022/02/14 10:38:50;;;;;;;7.63;1.25;;;;;;;8.07;83.11;100055.00;5092426;28;20035;-84
2022/02/14 10:41:16;;;;;;;12.15;2.17;;;;;;;8.08;82.57;100054.94;5083650;28;20240;-85
2022/02/14 10:43:41;;;;;;;4.45;1.38;;;;;;;8.12;82.36;100054.81;5078356;28;20103;-85
2022/02/14 10:46:08;;;;;;;7.70;1.30;;;;;;;8.14;82.33;100045.16;5079982;28;20103;-85
2022/02/14 10:48:40;;;;;;;8.07;1.30;;;;;;;8.15;83.17;100059.88;5064669;28;20028;-83
2022/02/14 10:51:06;;;;;;;7.25;1.27;;;;;;;8.20;82.38;100061.38;5094376;28;20035;-85
2022/02/14 10:53:43;;;;;;;9.43;1.20;;;;;;;8.26;82.30;100044.63;5098857;28;20394;-85
2022/02/14 10:56:10;;;;;;;9.18;1.30;;;;;;;8.29;82.81;100054.91;5069552;28;20039;-85
2022/02/14 10:58:35;;;;;;;10.90;1.65;;;;;;;8.34;82.38;100063.38;5073680;28;20051;-85
2022/02/14 11:01:01;;;;;;;9.25;2.22;;;;;;;8.35;81.38;100051.19;5078377;28;20048;-85
2022/02/14 11:03:26;;;;;;;11.43;1.70;;;;;;;8.38;80.61;100072.78;5073912;28;20481;-84
2022/02/14 11:05:53;;;;;;;7.88;1.00;;;;;;;8.38;80.20;100069.31;5083164;28;20054;-85
2022/02/14 11:08:21;;;;;;;7.53;1.70;;;;;;;8.40;81.02;100064.88;5074589;28;20274;-85
2022/02/14 11:10:50;;;;;;;4.63;1.25;;;;;;;8.39;80.29;100071.03;5098952;28;20036;-85
2022/02/14 11:13:17;;;;;;;5.00;0.85;;;;;;;8.42;80.79;100082.22;5096570;28;20028;-84
2022/02/14 11:15:44;;;;;;;4.57;1.27;;;;;;;8.41;79.15;100080.47;5097860;28;20028;-83
2022/02/14 11:18:17;;;;;;;15.23;1.52;;;;;;;8.42;80.11;100087.44;5103609;28;20066;-85
2022/02/14 11:20:44;;;;;;;10.80;1.85;;;;;;;8.45;79.62;100087.28;5102491;28;20030;-85
2022/02/14 11:23:12;;;;;;;9.13;1.75;;;;;;;8.44;78.57;100089.94;5086153;28;20098;-85
2022/02/14 11:26:03;;;;;;;7.88;1.42;;;;;;;8.45;78.90;100094.28;5093510;28;20502;-84
2022/02/14 11:28:46;;;;;;;16.83;1.67;;;;;;;8.41;77.89;100090.91;5094889;28;20043;-82
2022/02/14 11:31:20;;;;;;;7.63;1.30;;;;;;;8.41;78.13;100097.91;5092593;28;20040;-85
2022/02/14 11:33:55;;;;;;;10.73;1.52;;;;;;;8.45;78.06;100094.28;5068723;28;20198;-85
2022/02/14 11:36:23;;;;;;;5.25;1.27;;;;;;;8.46;78.56;100098.59;5097803;28;20054;-83
2022/02/14 11:38:53;;;;;;;10.52;1.58;;;;;;;8.51;78.51;100100.97;5079575;28;20066;-85
2022/02/14 11:41:36;;;;;;;9.13;1.80;;;;;;;8.53;78.69;100128.72;5070489;28;20067;-84